sensor_id;sensor_type;location;lat;lon;timestamp;temperature;humidity
19813;DHT22;10066;48.108;11.448;2022-07-12T00:01:32;17.50;99.90
19813;DHT22;10066;48.108;11.448;2022-07-12T00:03:59;17.40;99.90
19813;DHT22;10066;48.108;11.448;2022-07-12T00:06:27;17.40;99.90
19813;DHT22;10066;48.108;11.448;2022-07-12T00:08:54;17.30;99.90
19813;DHT22;10066;48.108;11.448;2022-07-12T00:11:21;17.20;99.90
19813;DHT22;10066;48.108;11.448;2022-07-12T00:13:48;17.10;99.90
19813;DHT22;10066;48.108;11.448;2022-07-12T00:16:15;17.10;99.90
19813;DHT22;10066;48.108;11.448;2022-07-12T00:18:42;17.00;99.90
19813;DHT22;10066;48.108;11.448;2022-07-12T00:21:09;17.00;99.90
19813;DHT22;10066;48.108;11.448;2022-07-12T00:23:38;16.90;99.90
19813;DHT22;10066;48.108;11.448;2022-07-12T00:26:05;16.80;99.90
19813;DHT22;10066;48.108;11.448;2022-07-12T00:28:32;16.70;99.90
19813;DHT22;10066;48.108;11.448;2022-07-12T00:31:00;16.70;99.90
19813;DHT22;10066;48.108;11.448;2022-07-12T00:33:27;16.50;99.90
19813;DHT22;10066;48.108;11.448;2022-07-12T00:35:54;16.50;99.90
19813;DHT22;10066;48.108;11.448;2022-07-12T00:38:21;16.40;99.90
19813;DHT22;10066;48.108;11.448;2022-07-12T00:40:52;16.40;99.90
19813;DHT22;10066;48.108;11.448;2022-07-12T00:43:19;16.40;99.90
19813;DHT22;10066;48.108;11.448;2022-07-12T00:45:46;16.40;99.90
19813;DHT22;10066;48.108;11.448;2022-07-12T00:48:13;16.30;99.90
19813;DHT22;10066;48.108;11.448;2022-07-12T00:50:43;16.30;99.90
19813;DHT22;10066;48.108;11.448;2022-07-12T00:53:11;16.30;99.90
19813;DHT22;10066;48.108;11.448;2022-07-12T00:55:39;16.30;99.90
19813;DHT22;10066;48.108;11.448;2022-07-12T00:58:08;16.30;99.90
19813;DHT22;10066;48.108;11.448;2022-07-12T01:00:35;16.30;99.90
19813;DHT22;10066;48.108;11.448;2022-07-12T01:03:03;16.20;99.90
19813;DHT22;10066;48.108;11.448;2022-07-12T01:05:31;16.20;99.90
19813;DHT22;10066;48.108;11.448;2022-07-12T01:07:59;16.20;99.90
19813;DHT22;10066;48.108;11.448;2022-07-12T01:10:26;16.10;99.90
19813;DHT22;10066;48.108;11.448;2022-07-12T01:12:57;16.10;99.90
19813;DHT22;10066;48.108;11.448;2022-07-12T01:15:26;16.10;99.90
19813;DHT22;10066;48.108;11.448;2022-07-12T01:17:55;16.10;99.90
19813;DHT22;10066;48.108;11.448;2022-07-12T01:20:23;16.00;99.90
19813;DHT22;10066;48.108;11.448;2022-07-12T01:22:53;16.00;99.90
19813;DHT22;10066;48.108;11.448;2022-07-12T01:25:20;16.00;99.90
19813;DHT22;10066;48.108;11.448;2022-07-12T01:27:47;16.00;99.90
19813;DHT22;10066;48.108;11.448;2022-07-12T01:30:15;15.90;99.90
19813;DHT22;10066;48.108;11.448;2022-07-12T01:32:45;16.00;99.90
19813;DHT22;10066;48.108;11.448;2022-07-12T01:35:12;15.90;99.90
19813;DHT22;10066;48.108;11.448;2022-07-12T01:37:41;15.90;99.90
19813;DHT22;10066;48.108;11.448;2022-07-12T01:40:11;15.90;99.90
19813;DHT22;10066;48.108;11.448;2022-07-12T01:42:39;15.90;99.90
19813;DHT22;10066;48.108;11.448;2022-07-12T01:45:07;15.90;99.90
19813;DHT22;10066;48.108;11.448;2022-07-12T01:47:36;15.90;99.90
19813;DHT22;10066;48.108;11.448;2022-07-12T01:50:04;15.90;99.90
19813;DHT22;10066;48.108;11.448;2022-07-12T01:52:33;15.80;99.90
19813;DHT22;10066;48.108;11.448;2022-07-12T01:55:00;15.80;99.90
19813;DHT22;10066;48.108;11.448;2022-07-12T01:57:29;15.80;99.90
19813;DHT22;10066;48.108;11.448;2022-07-12T01:59:59;15.70;99.90
19813;DHT22;10066;48.108;11.448;2022-07-12T02:02:27;15.60;99.90
19813;DHT22;10066;48.108;11.448;2022-07-12T02:04:56;15.50;99.90
19813;DHT22;10066;48.108;11.448;2022-07-12T02:07:24;15.50;99.90
19813;DHT22;10066;48.108;11.448;2022-07-12T02:09:53;15.40;99.90
19813;DHT22;10066;48.108;11.448;2022-07-12T02:12:20;15.30;99.90
19813;DHT22;10066;48.108;11.448;2022-07-12T02:14:48;15.30;99.90
19813;DHT22;10066;48.108;11.448;2022-07-12T02:17:15;15.20;99.90
19813;DHT22;10066;48.108;11.448;2022-07-12T02:19:43;15.20;99.90
19813;DHT22;10066;48.108;11.448;2022-07-12T02:22:10;15.20;99.90
19813;DHT22;10066;48.108;11.448;2022-07-12T02:24:37;15.20;99.90
19813;DHT22;10066;48.108;11.448;2022-07-12T02:27:04;15.20;99.90
19813;DHT22;10066;48.108;11.448;2022-07-12T02:29:32;15.10;99.90
19813;DHT22;10066;48.108;11.448;2022-07-12T02:32:00;15.10;99.90
19813;DHT22;10066;48.108;11.448;2022-07-12T02:34:28;15.00;99.90
19813;DHT22;10066;48.108;11.448;2022-07-12T02:36:55;14.90;99.90
19813;DHT22;10066;48.108;11.448;2022-07-12T02:39:23;14.80;99.90
19813;DHT22;10066;48.108;11.448;2022-07-12T02:41:50;14.80;99.90
19813;DHT22;10066;48.108;11.448;2022-07-12T02:44:17;14.70;99.90
19813;DHT22;10066;48.108;11.448;2022-07-12T02:46:44;14.60;99.90
19813;DHT22;10066;48.108;11.448;2022-07-12T02:49:12;14.60;99.90
19813;DHT22;10066;48.108;11.448;2022-07-12T02:51:39;14.50;99.90
19813;DHT22;10066;48.108;11.448;2022-07-12T02:54:06;14.90;99.90
19813;DHT22;10066;48.108;11.448;2022-07-12T02:56:33;14.50;99.90
19813;DHT22;10066;48.108;11.448;2022-07-12T02:58:59;14.30;99.90
19813;DHT22;10066;48.108;11.448;2022-07-12T03:03:53;14.20;99.90
19813;DHT22;10066;48.108;11.448;2022-07-12T03:06:22;14.20;99.90
19813;DHT22;10066;48.108;11.448;2022-07-12T03:08:49;14.10;99.90
19813;DHT22;10066;48.108;11.448;2022-07-12T03:11:16;14.00;99.90
19813;DHT22;10066;48.108;11.448;2022-07-12T03:13:43;14.00;99.90
19813;DHT22;10066;48.108;11.448;2022-07-12T03:16:10;14.00;99.90
19813;DHT22;10066;48.108;11.448;2022-07-12T03:18:39;13.90;99.90
19813;DHT22;10066;48.108;11.448;2022-07-12T03:21:07;13.90;99.90
19813;DHT22;10066;48.108;11.448;2022-07-12T03:23:35;13.80;99.90
19813;DHT22;10066;48.108;11.448;2022-07-12T03:26:02;13.80;99.90
19813;DHT22;10066;48.108;11.448;2022-07-12T03:28:29;13.90;99.90
19813;DHT22;10066;48.108;11.448;2022-07-12T03:30:57;13.90;99.90
19813;DHT22;10066;48.108;11.448;2022-07-12T03:33:24;13.80;99.90
19813;DHT22;10066;48.108;11.448;2022-07-12T03:35:50;13.80;99.90
19813;DHT22;10066;48.108;11.448;2022-07-12T03:38:17;13.70;99.90
19813;DHT22;10066;48.108;11.448;2022-07-12T03:40:46;13.70;99.90
19813;DHT22;10066;48.108;11.448;2022-07-12T03:43:14;13.70;99.90
19813;DHT22;10066;48.108;11.448;2022-07-12T03:45:40;13.70;99.90
19813;DHT22;10066;48.108;11.448;2022-07-12T03:48:08;13.80;99.90
19813;DHT22;10066;48.108;11.448;2022-07-12T03:50:36;13.70;99.90
19813;DHT22;10066;48.108;11.448;2022-07-12T03:53:03;13.80;99.90
19813;DHT22;10066;48.108;11.448;2022-07-12T03:55:30;13.70;99.90
19813;DHT22;10066;48.108;11.448;2022-07-12T03:57:58;13.90;99.90
19813;DHT22;10066;48.108;11.448;2022-07-12T04:00:25;13.90;99.90
19813;DHT22;10066;48.108;11.448;2022-07-12T04:02:52;13.90;99.90
19813;DHT22;10066;48.108;11.448;2022-07-12T04:05:20;13.90;99.90
19813;DHT22;10066;48.108;11.448;2022-07-12T04:07:51;14.00;99.90
19813;DHT22;10066;48.108;11.448;2022-07-12T04:10:19;14.00;99.90
19813;DHT22;10066;48.108;11.448;2022-07-12T04:12:46;14.10;99.90
19813;DHT22;10066;48.108;11.448;2022-07-12T04:15:14;14.20;99.90
19813;DHT22;10066;48.108;11.448;2022-07-12T04:17:41;14.60;99.90
19813;DHT22;10066;48.108;11.448;2022-07-12T04:20:09;15.40;99.90
19813;DHT22;10066;48.108;11.448;2022-07-12T04:22:37;16.20;99.90
19813;DHT22;10066;48.108;11.448;2022-07-12T04:25:04;16.90;99.90
19813;DHT22;10066;48.108;11.448;2022-07-12T04:27:32;17.50;99.90
19813;DHT22;10066;48.108;11.448;2022-07-12T04:29:59;17.90;99.90
19813;DHT22;10066;48.108;11.448;2022-07-12T04:32:27;18.20;99.90
19813;DHT22;10066;48.108;11.448;2022-07-12T04:34:55;18.70;99.90
19813;DHT22;10066;48.108;11.448;2022-07-12T04:37:22;19.00;99.90
19813;DHT22;10066;48.108;11.448;2022-07-12T04:39:49;19.30;99.90
19813;DHT22;10066;48.108;11.448;2022-07-12T04:42:15;19.30;99.90
19813;DHT22;10066;48.108;11.448;2022-07-12T04:44:42;19.30;99.90
19813;DHT22;10066;48.108;11.448;2022-07-12T04:47:09;19.10;99.90
19813;DHT22;10066;48.108;11.448;2022-07-12T04:49:38;19.00;99.90
19813;DHT22;10066;48.108;11.448;2022-07-12T04:52:06;19.20;99.90
19813;DHT22;10066;48.108;11.448;2022-07-12T04:54:33;19.60;99.90
19813;DHT22;10066;48.108;11.448;2022-07-12T04:57:00;20.00;99.90
19813;DHT22;10066;48.108;11.448;2022-07-12T04:59:27;20.50;99.90
19813;DHT22;10066;48.108;11.448;2022-07-12T05:01:54;21.20;99.90
19813;DHT22;10066;48.108;11.448;2022-07-12T05:04:21;21.60;99.90
19813;DHT22;10066;48.108;11.448;2022-07-12T05:06:50;22.20;99.90
19813;DHT22;10066;48.108;11.448;2022-07-12T05:09:17;22.00;99.90
19813;DHT22;10066;48.108;11.448;2022-07-12T05:11:44;21.80;99.90
19813;DHT22;10066;48.108;11.448;2022-07-12T05:14:11;21.60;99.90
19813;DHT22;10066;48.108;11.448;2022-07-12T05:16:38;21.40;99.90
19813;DHT22;10066;48.108;11.448;2022-07-12T05:19:05;21.00;99.90
19813;DHT22;10066;48.108;11.448;2022-07-12T05:21:32;20.60;99.90
19813;DHT22;10066;48.108;11.448;2022-07-12T05:24:01;20.40;99.90
19813;DHT22;10066;48.108;11.448;2022-07-12T05:26:29;20.30;99.90
19813;DHT22;10066;48.108;11.448;2022-07-12T05:28:56;20.10;99.90
19813;DHT22;10066;48.108;11.448;2022-07-12T05:31:22;19.90;99.90
19813;DHT22;10066;48.108;11.448;2022-07-12T05:33:51;19.70;99.90
19813;DHT22;10066;48.108;11.448;2022-07-12T05:36:18;19.60;99.90
19813;DHT22;10066;48.108;11.448;2022-07-12T05:38:45;19.50;99.90
19813;DHT22;10066;48.108;11.448;2022-07-12T05:41:13;19.40;99.90
19813;DHT22;10066;48.108;11.448;2022-07-12T05:43:40;19.30;99.90
19813;DHT22;10066;48.108;11.448;2022-07-12T05:46:07;19.10;99.90
19813;DHT22;10066;48.108;11.448;2022-07-12T05:48:34;19.10;99.90
19813;DHT22;10066;48.108;11.448;2022-07-12T05:51:01;19.00;99.90
19813;DHT22;10066;48.108;11.448;2022-07-12T05:53:42;18.90;99.90
19813;DHT22;10066;48.108;11.448;2022-07-12T05:56:09;18.80;99.90
19813;DHT22;10066;48.108;11.448;2022-07-12T05:58:37;18.70;99.90
19813;DHT22;10066;48.108;11.448;2022-07-12T06:01:04;18.60;99.90
19813;DHT22;10066;48.108;11.448;2022-07-12T06:03:32;18.50;99.90
19813;DHT22;10066;48.108;11.448;2022-07-12T06:05:59;18.40;99.90
19813;DHT22;10066;48.108;11.448;2022-07-12T06:08:27;18.40;99.90
19813;DHT22;10066;48.108;11.448;2022-07-12T06:10:54;18.30;99.90
19813;DHT22;10066;48.108;11.448;2022-07-12T06:13:21;18.30;99.90
19813;DHT22;10066;48.108;11.448;2022-07-12T06:15:49;18.20;99.90
19813;DHT22;10066;48.108;11.448;2022-07-12T06:18:17;18.20;99.90
19813;DHT22;10066;48.108;11.448;2022-07-12T06:20:44;18.20;99.90
19813;DHT22;10066;48.108;11.448;2022-07-12T06:23:11;18.20;99.90
19813;DHT22;10066;48.108;11.448;2022-07-12T06:25:38;18.20;99.90
19813;DHT22;10066;48.108;11.448;2022-07-12T06:28:05;19.00;99.90
19813;DHT22;10066;48.108;11.448;2022-07-12T06:30:32;19.60;99.90
19813;DHT22;10066;48.108;11.448;2022-07-12T06:33:01;20.20;99.90
19813;DHT22;10066;48.108;11.448;2022-07-12T06:35:28;21.50;99.90
19813;DHT22;10066;48.108;11.448;2022-07-12T06:37:55;22.60;99.90
19813;DHT22;10066;48.108;11.448;2022-07-12T06:40:22;23.60;99.90
19813;DHT22;10066;48.108;11.448;2022-07-12T06:42:49;24.40;99.90
19813;DHT22;10066;48.108;11.448;2022-07-12T06:45:16;25.00;99.70
19813;DHT22;10066;48.108;11.448;2022-07-12T06:47:43;25.70;97.60
19813;DHT22;10066;48.108;11.448;2022-07-12T06:50:12;26.10;94.70
19813;DHT22;10066;48.108;11.448;2022-07-12T06:55:07;26.80;91.70
19813;DHT22;10066;48.108;11.448;2022-07-12T06:57:34;27.10;88.50
19813;DHT22;10066;48.108;11.448;2022-07-12T07:00:03;27.40;85.90
19813;DHT22;10066;48.108;11.448;2022-07-12T07:02:31;27.60;83.50
19813;DHT22;10066;48.108;11.448;2022-07-12T07:04:57;27.60;80.50
19813;DHT22;10066;48.108;11.448;2022-07-12T07:07:26;27.60;80.90
19813;DHT22;10066;48.108;11.448;2022-07-12T07:09:53;27.40;78.40
19813;DHT22;10066;48.108;11.448;2022-07-12T07:12:20;26.90;79.30
19813;DHT22;10066;48.108;11.448;2022-07-12T07:14:47;26.00;83.00
19813;DHT22;10066;48.108;11.448;2022-07-12T07:17:15;25.20;85.70
19813;DHT22;10066;48.108;11.448;2022-07-12T07:19:43;24.40;87.50
19813;DHT22;10066;48.108;11.448;2022-07-12T07:22:10;23.70;88.90
19813;DHT22;10066;48.108;11.448;2022-07-12T07:24:39;23.20;90.80
19813;DHT22;10066;48.108;11.448;2022-07-12T07:27:07;22.40;91.00
19813;DHT22;10066;48.108;11.448;2022-07-12T07:29:34;22.40;91.80
19813;DHT22;10066;48.108;11.448;2022-07-12T07:32:19;22.00;92.00
19813;DHT22;10066;48.108;11.448;2022-07-12T07:34:45;21.80;93.60
19813;DHT22;10066;48.108;11.448;2022-07-12T07:37:12;21.60;93.60
19813;DHT22;10066;48.108;11.448;2022-07-12T07:39:41;21.50;94.40
19813;DHT22;10066;48.108;11.448;2022-07-12T07:42:08;21.40;94.30
19813;DHT22;10066;48.108;11.448;2022-07-12T07:44:35;21.30;94.40
19813;DHT22;10066;48.108;11.448;2022-07-12T07:47:03;21.20;94.50
19813;DHT22;10066;48.108;11.448;2022-07-12T07:49:30;21.00;93.80
19813;DHT22;10066;48.108;11.448;2022-07-12T07:51:57;20.80;93.80
19813;DHT22;10066;48.108;11.448;2022-07-12T07:54:24;20.70;94.40
19813;DHT22;10066;48.108;11.448;2022-07-12T07:56:52;20.50;94.60
19813;DHT22;10066;48.108;11.448;2022-07-12T07:59:19;20.50;94.80
19813;DHT22;10066;48.108;11.448;2022-07-12T08:01:46;20.50;95.30
19813;DHT22;10066;48.108;11.448;2022-07-12T08:04:18;20.50;95.40
19813;DHT22;10066;48.108;11.448;2022-07-12T08:06:48;20.50;95.30
19813;DHT22;10066;48.108;11.448;2022-07-12T08:09:15;20.50;94.90
19813;DHT22;10066;48.108;11.448;2022-07-12T08:11:42;20.60;95.70
19813;DHT22;10066;48.108;11.448;2022-07-12T08:14:11;20.80;95.80
19813;DHT22;10066;48.108;11.448;2022-07-12T08:16:38;20.90;95.60
19813;DHT22;10066;48.108;11.448;2022-07-12T08:19:05;21.00;95.40
19813;DHT22;10066;48.108;11.448;2022-07-12T08:21:32;21.10;95.30
19813;DHT22;10066;48.108;11.448;2022-07-12T08:23:59;21.20;94.30
19813;DHT22;10066;48.108;11.448;2022-07-12T08:26:26;21.10;94.00
19813;DHT22;10066;48.108;11.448;2022-07-12T08:28:53;21.00;93.70
19813;DHT22;10066;48.108;11.448;2022-07-12T08:31:22;21.00;94.20
19813;DHT22;10066;48.108;11.448;2022-07-12T08:33:49;21.00;93.90
19813;DHT22;10066;48.108;11.448;2022-07-12T08:36:16;21.00;93.60
19813;DHT22;10066;48.108;11.448;2022-07-12T08:38:43;21.00;94.10
19813;DHT22;10066;48.108;11.448;2022-07-12T08:41:12;21.20;94.80
19813;DHT22;10066;48.108;11.448;2022-07-12T08:43:40;21.20;94.40
19813;DHT22;10066;48.108;11.448;2022-07-12T08:46:08;21.40;94.50
19813;DHT22;10066;48.108;11.448;2022-07-12T08:48:37;21.50;94.10
19813;DHT22;10066;48.108;11.448;2022-07-12T08:51:06;21.50;93.20
19813;DHT22;10066;48.108;11.448;2022-07-12T08:53:34;21.30;92.60
19813;DHT22;10066;48.108;11.448;2022-07-12T08:56:02;21.30;92.10
19813;DHT22;10066;48.108;11.448;2022-07-12T08:58:30;21.40;92.60
19813;DHT22;10066;48.108;11.448;2022-07-12T09:00:59;21.60;91.70
19813;DHT22;10066;48.108;11.448;2022-07-12T09:03:26;21.70;92.00
19813;DHT22;10066;48.108;11.448;2022-07-12T09:05:55;21.90;91.10
19813;DHT22;10066;48.108;11.448;2022-07-12T09:08:29;21.90;86.70
19813;DHT22;10066;48.108;11.448;2022-07-12T09:10:59;21.90;86.30
19813;DHT22;10066;48.108;11.448;2022-07-12T09:13:48;22.00;98.60
19813;DHT22;10066;48.108;11.448;2022-07-12T09:18:43;22.10;87.50
19813;DHT22;10066;48.108;11.448;2022-07-12T09:21:21;21.90;89.30
19813;DHT22;10066;48.108;11.448;2022-07-12T09:23:52;21.80;88.20
19813;DHT22;10066;48.108;11.448;2022-07-12T09:26:19;21.90;90.00
19813;DHT22;10066;48.108;11.448;2022-07-12T09:28:48;21.80;88.60
19813;DHT22;10066;48.108;11.448;2022-07-12T09:31:15;21.70;84.50
19813;DHT22;10066;48.108;11.448;2022-07-12T09:33:59;21.60;85.80
19813;DHT22;10066;48.108;11.448;2022-07-12T09:36:54;21.60;86.10
19813;DHT22;10066;48.108;11.448;2022-07-12T09:39:22;21.60;86.70
19813;DHT22;10066;48.108;11.448;2022-07-12T09:41:51;21.60;87.20
19813;DHT22;10066;48.108;11.448;2022-07-12T09:44:19;21.80;88.40
19813;DHT22;10066;48.108;11.448;2022-07-12T09:46:47;22.00;90.00
19813;DHT22;10066;48.108;11.448;2022-07-12T09:49:17;21.90;86.90
19813;DHT22;10066;48.108;11.448;2022-07-12T09:51:47;21.80;87.70
19813;DHT22;10066;48.108;11.448;2022-07-12T09:54:31;21.70;88.00
19813;DHT22;10066;48.108;11.448;2022-07-12T09:56:59;21.60;88.80
19813;DHT22;10066;48.108;11.448;2022-07-12T09:59:29;21.60;88.50
19813;DHT22;10066;48.108;11.448;2022-07-12T10:01:57;21.50;89.10
19813;DHT22;10066;48.108;11.448;2022-07-12T10:04:29;21.40;89.90
19813;DHT22;10066;48.108;11.448;2022-07-12T10:06:59;21.50;89.80
19813;DHT22;10066;48.108;11.448;2022-07-12T10:09:27;21.40;89.20
19813;DHT22;10066;48.108;11.448;2022-07-12T10:11:55;21.60;89.90
19813;DHT22;10066;48.108;11.448;2022-07-12T10:14:23;21.70;90.00
19813;DHT22;10066;48.108;11.448;2022-07-12T10:16:51;21.90;89.90
19813;DHT22;10066;48.108;11.448;2022-07-12T10:19:24;21.90;89.50
19813;DHT22;10066;48.108;11.448;2022-07-12T10:21:51;22.10;88.60
19813;DHT22;10066;48.108;11.448;2022-07-12T10:24:49;22.20;89.20
19813;DHT22;10066;48.108;11.448;2022-07-12T10:27:29;22.20;87.00
19813;DHT22;10066;48.108;11.448;2022-07-12T10:30:12;22.30;87.80
19813;DHT22;10066;48.108;11.448;2022-07-12T10:32:42;22.20;85.60
19813;DHT22;10066;48.108;11.448;2022-07-12T10:35:13;22.20;86.60
19813;DHT22;10066;48.108;11.448;2022-07-12T10:37:41;22.30;86.60
19813;DHT22;10066;48.108;11.448;2022-07-12T10:40:14;22.50;87.20
19813;DHT22;10066;48.108;11.448;2022-07-12T10:46:24;22.80;82.00
19813;DHT22;10066;48.108;11.448;2022-07-12T10:49:22;22.70;83.10
19813;DHT22;10066;48.108;11.448;2022-07-12T10:52:14;22.50;84.40
19813;DHT22;10066;48.108;11.448;2022-07-12T10:54:47;22.30;84.30
19813;DHT22;10066;48.108;11.448;2022-07-12T10:57:38;22.10;84.40
19813;DHT22;10066;48.108;11.448;2022-07-12T11:00:07;22.10;84.80
19813;DHT22;10066;48.108;11.448;2022-07-12T11:02:34;22.10;85.10
19813;DHT22;10066;48.108;11.448;2022-07-12T11:05:02;22.20;84.00
19813;DHT22;10066;48.108;11.448;2022-07-12T11:07:29;22.30;82.90
19813;DHT22;10066;48.108;11.448;2022-07-12T11:09:57;22.40;82.70
19813;DHT22;10066;48.108;11.448;2022-07-12T11:12:29;22.60;83.80
19813;DHT22;10066;48.108;11.448;2022-07-12T11:14:57;22.90;84.00
19813;DHT22;10066;48.108;11.448;2022-07-12T11:17:25;23.00;81.70
19813;DHT22;10066;48.108;11.448;2022-07-12T11:20:04;22.90;80.30
19813;DHT22;10066;48.108;11.448;2022-07-12T11:22:32;23.00;79.60
19813;DHT22;10066;48.108;11.448;2022-07-12T11:24:59;23.00;79.30
19813;DHT22;10066;48.108;11.448;2022-07-12T11:27:28;22.90;79.10
19813;DHT22;10066;48.108;11.448;2022-07-12T11:29:59;22.90;79.20
19813;DHT22;10066;48.108;11.448;2022-07-12T11:32:37;22.80;78.80
19813;DHT22;10066;48.108;11.448;2022-07-12T11:35:17;22.70;78.90
19813;DHT22;10066;48.108;11.448;2022-07-12T11:37:51;22.70;77.50
19813;DHT22;10066;48.108;11.448;2022-07-12T11:40:24;22.70;77.40
19813;DHT22;10066;48.108;11.448;2022-07-12T11:42:57;22.90;78.20
19813;DHT22;10066;48.108;11.448;2022-07-12T11:45:26;23.10;79.10
19813;DHT22;10066;48.108;11.448;2022-07-12T11:47:54;23.30;79.60
19813;DHT22;10066;48.108;11.448;2022-07-12T11:50:22;23.50;78.20
19813;DHT22;10066;48.108;11.448;2022-07-12T11:52:49;23.70;78.10
19813;DHT22;10066;48.108;11.448;2022-07-12T11:55:16;24.00;78.50
19813;DHT22;10066;48.108;11.448;2022-07-12T11:57:43;24.10;77.40
19813;DHT22;10066;48.108;11.448;2022-07-12T12:00:16;24.30;78.00
19813;DHT22;10066;48.108;11.448;2022-07-12T12:02:44;24.50;74.60
19813;DHT22;10066;48.108;11.448;2022-07-12T12:05:11;24.50;74.00
19813;DHT22;10066;48.108;11.448;2022-07-12T12:07:39;24.40;73.60
19813;DHT22;10066;48.108;11.448;2022-07-12T12:10:10;24.20;73.50
19813;DHT22;10066;48.108;11.448;2022-07-12T12:12:42;24.10;73.10
19813;DHT22;10066;48.108;11.448;2022-07-12T12:15:10;24.00;73.40
19813;DHT22;10066;48.108;11.448;2022-07-12T12:17:44;23.90;73.10
19813;DHT22;10066;48.108;11.448;2022-07-12T12:20:14;23.60;72.60
19813;DHT22;10066;48.108;11.448;2022-07-12T12:22:42;23.50;71.40
19813;DHT22;10066;48.108;11.448;2022-07-12T12:25:10;23.30;71.80
19813;DHT22;10066;48.108;11.448;2022-07-12T12:27:46;23.20;73.20
19813;DHT22;10066;48.108;11.448;2022-07-12T12:30:14;23.30;72.20
19813;DHT22;10066;48.108;11.448;2022-07-12T12:32:48;23.30;72.50
19813;DHT22;10066;48.108;11.448;2022-07-12T12:35:18;23.10;71.60
19813;DHT22;10066;48.108;11.448;2022-07-12T12:37:56;22.90;71.60
19813;DHT22;10066;48.108;11.448;2022-07-12T12:40:24;22.80;71.60
19813;DHT22;10066;48.108;11.448;2022-07-12T12:42:52;22.70;72.00
19813;DHT22;10066;48.108;11.448;2022-07-12T12:45:22;22.70;72.20
19813;DHT22;10066;48.108;11.448;2022-07-12T12:47:55;22.60;72.50
19813;DHT22;10066;48.108;11.448;2022-07-12T12:50:39;22.60;72.50
19813;DHT22;10066;48.108;11.448;2022-07-12T12:53:10;22.70;72.30
19813;DHT22;10066;48.108;11.448;2022-07-12T12:55:38;22.90;72.30
19813;DHT22;10066;48.108;11.448;2022-07-12T12:58:05;23.00;71.90
19813;DHT22;10066;48.108;11.448;2022-07-12T13:00:35;23.00;71.10
19813;DHT22;10066;48.108;11.448;2022-07-12T13:03:05;23.20;72.30
19813;DHT22;10066;48.108;11.448;2022-07-12T13:05:33;23.40;73.50
19813;DHT22;10066;48.108;11.448;2022-07-12T13:08:00;23.60;72.10
19813;DHT22;10066;48.108;11.448;2022-07-12T13:10:28;23.50;70.20
19813;DHT22;10066;48.108;11.448;2022-07-12T13:12:56;23.40;70.60
19813;DHT22;10066;48.108;11.448;2022-07-12T13:15:25;23.30;70.20
19813;DHT22;10066;48.108;11.448;2022-07-12T13:17:52;23.20;69.90
19813;DHT22;10066;48.108;11.448;2022-07-12T13:20:21;23.20;71.30
19813;DHT22;10066;48.108;11.448;2022-07-12T13:22:49;23.20;71.20
19813;DHT22;10066;48.108;11.448;2022-07-12T13:25:16;23.20;70.50
19813;DHT22;10066;48.108;11.448;2022-07-12T13:27:43;23.20;69.30
19813;DHT22;10066;48.108;11.448;2022-07-12T13:30:13;23.30;69.40
19813;DHT22;10066;48.108;11.448;2022-07-12T13:32:40;23.40;68.80
19813;DHT22;10066;48.108;11.448;2022-07-12T13:35:09;23.60;70.30
19813;DHT22;10066;48.108;11.448;2022-07-12T13:37:39;23.90;69.90
19813;DHT22;10066;48.108;11.448;2022-07-12T13:40:07;24.10;69.10
19813;DHT22;10066;48.108;11.448;2022-07-12T13:42:37;24.20;67.60
19813;DHT22;10066;48.108;11.448;2022-07-12T13:45:05;24.20;66.80
19813;DHT22;10066;48.108;11.448;2022-07-12T13:47:33;24.20;66.10
19813;DHT22;10066;48.108;11.448;2022-07-12T13:50:00;24.10;66.30
19813;DHT22;10066;48.108;11.448;2022-07-12T13:52:27;24.00;65.70
19813;DHT22;10066;48.108;11.448;2022-07-12T13:54:55;24.00;66.60
19813;DHT22;10066;48.108;11.448;2022-07-12T13:57:22;23.90;64.50
19813;DHT22;10066;48.108;11.448;2022-07-12T13:59:49;24.00;64.30
19813;DHT22;10066;48.108;11.448;2022-07-12T14:02:17;24.10;65.20
19813;DHT22;10066;48.108;11.448;2022-07-12T14:04:44;24.20;65.50
19813;DHT22;10066;48.108;11.448;2022-07-12T14:07:11;24.30;65.90
19813;DHT22;10066;48.108;11.448;2022-07-12T14:09:38;24.60;66.20
19813;DHT22;10066;48.108;11.448;2022-07-12T14:12:07;24.70;65.40
19813;DHT22;10066;48.108;11.448;2022-07-12T14:14:35;24.60;63.30
19813;DHT22;10066;48.108;11.448;2022-07-12T14:17:19;24.70;63.80
19813;DHT22;10066;48.108;11.448;2022-07-12T14:19:46;24.60;63.20
19813;DHT22;10066;48.108;11.448;2022-07-12T14:22:13;24.70;63.80
19813;DHT22;10066;48.108;11.448;2022-07-12T14:24:40;24.60;62.10
19813;DHT22;10066;48.108;11.448;2022-07-12T14:27:09;24.70;63.10
19813;DHT22;10066;48.108;11.448;2022-07-12T14:29:43;24.90;63.60
19813;DHT22;10066;48.108;11.448;2022-07-12T14:32:11;25.00;63.10
19813;DHT22;10066;48.108;11.448;2022-07-12T14:34:38;25.10;62.30
19813;DHT22;10066;48.108;11.448;2022-07-12T14:37:05;25.20;62.70
19813;DHT22;10066;48.108;11.448;2022-07-12T14:39:32;25.30;61.80
19813;DHT22;10066;48.108;11.448;2022-07-12T14:41:59;25.40;60.90
19813;DHT22;10066;48.108;11.448;2022-07-12T14:44:28;25.20;60.20
19813;DHT22;10066;48.108;11.448;2022-07-12T14:46:55;25.20;58.40
19813;DHT22;10066;48.108;11.448;2022-07-12T14:49:22;25.00;58.90
19813;DHT22;10066;48.108;11.448;2022-07-12T14:51:49;25.10;59.00
19813;DHT22;10066;48.108;11.448;2022-07-12T14:54:16;25.00;58.90
19813;DHT22;10066;48.108;11.448;2022-07-12T14:56:44;25.10;59.80
19813;DHT22;10066;48.108;11.448;2022-07-12T14:59:11;25.20;60.00
19813;DHT22;10066;48.108;11.448;2022-07-12T15:01:40;25.30;61.10
19813;DHT22;10066;48.108;11.448;2022-07-12T15:04:07;25.30;61.80
19813;DHT22;10066;48.108;11.448;2022-07-12T15:06:34;25.40;62.10
19813;DHT22;10066;48.108;11.448;2022-07-12T15:09:01;25.40;60.90
19813;DHT22;10066;48.108;11.448;2022-07-12T15:11:28;25.40;60.60
19813;DHT22;10066;48.108;11.448;2022-07-12T15:13:54;25.30;60.30
19813;DHT22;10066;48.108;11.448;2022-07-12T15:16:22;25.30;59.60
19813;DHT22;10066;48.108;11.448;2022-07-12T15:18:50;25.10;59.20
19813;DHT22;10066;48.108;11.448;2022-07-12T15:21:17;24.90;59.20
19813;DHT22;10066;48.108;11.448;2022-07-12T15:23:45;24.90;60.10
19813;DHT22;10066;48.108;11.448;2022-07-12T15:26:12;24.90;60.10
19813;DHT22;10066;48.108;11.448;2022-07-12T15:28:49;24.80;59.60
19813;DHT22;10066;48.108;11.448;2022-07-12T15:31:17;24.70;59.20
19813;DHT22;10066;48.108;11.448;2022-07-12T15:33:45;24.60;59.40
19813;DHT22;10066;48.108;11.448;2022-07-12T15:36:13;24.50;59.50